createdAt,value
2023-01-18T00:01:19.408Z,94.90
2023-01-18T00:03:47.083Z,94.80
2023-01-18T00:06:14.519Z,94.20
2023-01-18T00:08:42.523Z,93.90
2023-01-18T00:11:16.989Z,92.20
2023-01-18T00:13:44.386Z,92.50
2023-01-18T00:16:19.533Z,93.50
2023-01-18T00:18:56.838Z,95.10
2023-01-18T00:21:27.050Z,94.30
2023-01-18T00:23:58.893Z,94.80
2023-01-18T00:26:25.863Z,93.70
2023-01-18T00:28:57.118Z,94.00
2023-01-18T00:31:24.062Z,92.90
2023-01-18T00:33:51.113Z,92.30
2023-01-18T00:36:19.230Z,91.20
2023-01-18T00:38:53.922Z,91.70
2023-01-18T00:41:22.681Z,91.60
2023-01-18T00:43:51.513Z,90.70
2023-01-18T00:46:23.686Z,89.30
2023-01-18T00:48:52.467Z,89.90
2023-01-18T00:51:24.608Z,89.00
2023-01-18T00:53:52.113Z,90.00
2023-01-18T00:56:22.339Z,91.70
2023-01-18T00:58:49.439Z,91.30
2023-01-18T01:01:16.775Z,91.60
2023-01-18T01:04:02.510Z,94.00
2023-01-18T01:06:44.288Z,94.60
2023-01-18T01:09:20.834Z,95.10
2023-01-18T01:12:08.042Z,95.40
2023-01-18T01:15:00.549Z,94.10
2023-01-18T01:17:49.641Z,93.60
2023-01-18T01:20:35.488Z,94.40
2023-01-18T01:23:41.372Z,95.30
2023-01-18T01:26:11.722Z,95.40
2023-01-18T01:28:52.000Z,93.60
2023-01-18T01:31:21.002Z,93.60
2023-01-18T01:33:50.962Z,93.40
2023-01-18T01:36:27.084Z,92.80
2023-01-18T01:38:55.827Z,92.60
2023-01-18T01:41:35.021Z,93.40
2023-01-18T01:44:28.081Z,94.50
2023-01-18T01:47:33.081Z,94.00
2023-01-18T01:50:24.456Z,92.30
2023-01-18T01:52:51.678Z,90.70
2023-01-18T01:55:40.588Z,90.70
2023-01-18T01:58:23.238Z,90.70
2023-01-18T02:00:50.888Z,91.10
2023-01-18T02:03:18.559Z,91.70
2023-01-18T02:05:55.496Z,92.70
2023-01-18T02:08:23.326Z,92.30
2023-01-18T02:10:52.488Z,92.20
2023-01-18T02:13:25.300Z,92.50
2023-01-18T02:16:33.969Z,91.70
2023-01-18T02:19:43.201Z,93.00
2023-01-18T02:22:47.813Z,94.20
2023-01-18T02:26:21.770Z,94.10
2023-01-18T02:29:27.221Z,92.80
2023-01-18T02:32:37.953Z,91.40
2023-01-18T02:35:22.013Z,89.40
2023-01-18T02:38:13.473Z,89.20
2023-01-18T02:42:05.562Z,88.30
2023-01-18T02:45:02.713Z,88.80
2023-01-18T02:47:32.780Z,88.60
2023-01-18T02:49:59.695Z,87.90
2023-01-18T02:52:54.132Z,85.80
2023-01-18T02:55:59.113Z,85.10
2023-01-18T02:58:38.989Z,87.00
2023-01-18T03:01:26.637Z,87.70
2023-01-18T03:04:10.572Z,85.40
2023-01-18T03:06:44.392Z,87.10
2023-01-18T03:09:18.375Z,86.90
2023-01-18T03:12:10.639Z,87.10
2023-01-18T03:15:09.951Z,86.50
2023-01-18T03:17:57.379Z,87.50
2023-01-18T03:20:41.175Z,88.80
2023-01-18T03:23:41.032Z,89.60
2023-01-18T03:26:19.463Z,90.40
2023-01-18T03:29:19.572Z,91.20
2023-01-18T03:32:35.692Z,89.50
2023-01-18T03:35:16.780Z,90.40
2023-01-18T03:37:49.069Z,91.90
2023-01-18T03:40:31.120Z,90.70
2023-01-18T03:43:16.094Z,91.80
2023-01-18T03:45:49.803Z,92.90
2023-01-18T03:48:17.767Z,93.70
2023-01-18T03:51:19.799Z,95.40
2023-01-18T03:54:19.559Z,96.50
2023-01-18T03:57:24.904Z,95.80
2023-01-18T03:59:52.303Z,95.60
2023-01-18T04:02:22.920Z,96.50
2023-01-18T04:04:50.428Z,96.90
2023-01-18T04:07:17.383Z,96.80
2023-01-18T04:09:44.276Z,97.60
2023-01-18T04:12:11.285Z,96.40
2023-01-18T04:14:38.233Z,96.70
2023-01-18T04:17:05.096Z,95.40
2023-01-18T04:19:31.999Z,95.60
2023-01-18T04:21:58.947Z,95.30
2023-01-18T04:24:26.033Z,93.70
2023-01-18T04:26:53.057Z,91.50
2023-01-18T04:29:19.976Z,90.50
2023-01-18T04:31:47.132Z,90.40
2023-01-18T04:34:14.284Z,90.10
2023-01-18T04:36:41.261Z,89.80
2023-01-18T04:39:13.045Z,91.60
2023-01-18T04:41:40.044Z,92.60
2023-01-18T04:44:07.158Z,93.00
2023-01-18T04:46:34.670Z,93.60
2023-01-18T04:49:01.639Z,93.40
2023-01-18T04:51:31.258Z,95.00
2023-01-18T04:54:00.207Z,95.90
2023-01-18T04:56:28.615Z,95.60
2023-01-18T04:58:55.756Z,96.30
2023-01-18T05:01:23.761Z,98.30
2023-01-18T05:03:53.691Z,98.00
2023-01-18T05:06:20.666Z,97.60
2023-01-18T05:08:48.549Z,97.70
2023-01-18T05:11:23.065Z,97.10
2023-01-18T05:13:50.449Z,97.20
2023-01-18T05:16:23.541Z,96.10
2023-01-18T05:18:51.630Z,95.40
2023-01-18T05:21:18.652Z,94.80
2023-01-18T05:23:45.987Z,95.60
2023-01-18T05:26:20.895Z,95.60
2023-01-18T05:28:50.808Z,97.60
2023-01-18T05:31:20.982Z,98.00
2023-01-18T05:33:48.466Z,98.20
2023-01-18T05:36:15.993Z,98.50
2023-01-18T05:38:43.278Z,99.00
2023-01-18T05:41:10.728Z,98.90
2023-01-18T05:43:47.886Z,97.30
2023-01-18T05:46:14.968Z,97.30
2023-01-18T05:48:43.625Z,97.40
2023-01-18T05:51:12.749Z,97.40
2023-01-18T05:53:42.295Z,96.50
2023-01-18T05:56:09.846Z,96.70
2023-01-18T05:58:38.355Z,96.10
2023-01-18T06:01:07.663Z,95.30
2023-01-18T06:03:35.723Z,95.80
2023-01-18T06:06:03.103Z,96.20
2023-01-18T06:08:30.086Z,96.40
2023-01-18T06:10:59.890Z,96.50
2023-01-18T06:13:31.623Z,96.10
2023-01-18T06:16:00.728Z,97.70
2023-01-18T06:18:32.854Z,97.30
2023-01-18T06:21:02.961Z,96.20
2023-01-18T06:23:30.672Z,95.20
2023-01-18T06:25:58.600Z,93.80
2023-01-18T06:28:26.101Z,93.20
2023-01-18T06:30:56.397Z,90.70
2023-01-18T06:33:25.035Z,90.80
2023-01-18T06:35:52.488Z,92.10
2023-01-18T06:38:20.802Z,91.80
2023-01-18T06:40:48.108Z,92.60
2023-01-18T06:43:15.923Z,95.00
2023-01-18T06:45:43.504Z,96.30
2023-01-18T06:48:10.592Z,96.80
2023-01-18T06:50:37.562Z,96.30
2023-01-18T06:53:04.500Z,96.20
2023-01-18T06:55:31.832Z,93.40
2023-01-18T06:57:58.833Z,93.80
2023-01-18T07:00:26.255Z,92.80
2023-01-18T07:02:53.372Z,93.10
2023-01-18T07:05:20.758Z,95.10
2023-01-18T07:07:47.759Z,93.50
2023-01-18T07:10:16.650Z,93.80
2023-01-18T07:12:48.691Z,91.50
2023-01-18T07:15:21.924Z,91.80
2023-01-18T07:17:53.867Z,92.10
2023-01-18T07:20:23.891Z,93.10
2023-01-18T07:22:55.215Z,93.60
2023-01-18T07:25:22.700Z,92.70
2023-01-18T07:27:50.061Z,93.70
2023-01-18T07:30:18.255Z,93.90
2023-01-18T07:32:54.506Z,93.90
2023-01-18T07:35:25.555Z,92.90
2023-01-18T07:37:55.995Z,92.40
2023-01-18T07:40:25.673Z,90.90
2023-01-18T07:43:00.170Z,91.80
2023-01-18T07:45:30.808Z,91.90
2023-01-18T07:47:57.890Z,92.10
2023-01-18T07:50:30.377Z,92.70
2023-01-18T07:53:04.507Z,92.90
2023-01-18T07:55:33.026Z,92.40
2023-01-18T07:58:01.371Z,92.50
2023-01-18T08:00:30.650Z,92.90
2023-01-18T08:02:59.183Z,92.60
2023-01-18T08:05:27.672Z,92.40
2023-01-18T08:07:54.751Z,92.40
2023-01-18T08:10:26.526Z,91.80
2023-01-18T08:12:53.654Z,91.60
2023-01-18T08:15:20.792Z,87.40
2023-01-18T08:17:47.738Z,85.80
2023-01-18T08:20:14.942Z,84.30
2023-01-18T08:22:42.010Z,86.00
2023-01-18T08:25:09.974Z,85.80
2023-01-18T08:27:37.014Z,85.10
2023-01-18T08:30:06.054Z,86.10
2023-01-18T08:32:34.144Z,85.60
2023-01-18T08:35:01.105Z,83.50
2023-01-18T08:37:28.592Z,83.30
2023-01-18T08:39:55.553Z,83.30
2023-01-18T08:42:22.642Z,83.40
2023-01-18T08:44:49.636Z,82.90
2023-01-18T08:47:17.350Z,83.30
2023-01-18T08:49:44.333Z,82.50
2023-01-18T08:52:11.482Z,82.90
2023-01-18T08:54:38.690Z,82.60
2023-01-18T08:57:05.746Z,84.10
2023-01-18T08:59:32.668Z,83.50
2023-01-18T09:01:59.797Z,84.00
2023-01-18T09:04:30.111Z,83.30
2023-01-18T09:06:57.164Z,83.30
2023-01-18T09:09:26.199Z,82.60
2023-01-18T09:11:53.558Z,82.60
2023-01-18T09:14:20.659Z,82.00
2023-01-18T09:16:47.767Z,82.70
2023-01-18T09:19:14.795Z,82.70
2023-01-18T09:21:41.989Z,83.30
2023-01-18T09:24:08.978Z,83.30
2023-01-18T09:26:35.895Z,83.50
2023-01-18T09:29:02.912Z,82.20
2023-01-18T09:31:30.741Z,80.70
2023-01-18T09:34:17.419Z,79.90
2023-01-18T09:36:45.635Z,80.90
2023-01-18T09:39:12.954Z,79.60
2023-01-18T09:41:46.895Z,80.10
2023-01-18T09:44:59.688Z,80.90
2023-01-18T09:47:42.887Z,80.20
2023-01-18T09:50:21.194Z,80.80
2023-01-18T09:53:23.555Z,83.00
2023-01-18T09:56:11.205Z,82.80
2023-01-18T09:58:55.586Z,82.70
2023-01-18T10:01:31.721Z,81.80
2023-01-18T10:04:28.804Z,80.60
2023-01-18T10:07:07.395Z,80.00
2023-01-18T10:09:51.171Z,81.30
2023-01-18T10:13:08.406Z,81.00
2023-01-18T10:15:39.513Z,79.30
2023-01-18T10:18:10.046Z,80.70
2023-01-18T10:21:05.548Z,80.10
2023-01-18T10:24:22.594Z,80.90
2023-01-18T10:27:18.827Z,79.90
2023-01-18T10:30:28.814Z,80.00
2023-01-18T10:33:13.041Z,79.60
2023-01-18T10:35:53.954Z,79.80
2023-01-18T10:38:28.712Z,77.10
2023-01-18T10:41:02.662Z,77.10
2023-01-18T10:43:32.034Z,77.90
2023-01-18T10:46:01.412Z,78.00
2023-01-18T10:48:34.707Z,77.80
2023-01-18T10:51:07.112Z,78.20
2023-01-18T10:53:48.285Z,78.60
2023-01-18T10:56:28.522Z,79.90
2023-01-18T10:59:00.820Z,79.90
2023-01-18T11:01:34.992Z,79.90
2023-01-18T11:04:24.901Z,79.10
2023-01-18T11:07:10.073Z,78.50
2023-01-18T11:09:56.712Z,78.60
2023-01-18T11:12:34.432Z,79.80
2023-01-18T11:15:16.580Z,79.70
2023-01-18T11:18:02.265Z,80.00
2023-01-18T11:20:46.283Z,80.90
2023-01-18T11:23:37.695Z,81.20
2023-01-18T11:26:19.322Z,81.00
2023-01-18T11:29:00.182Z,81.60
2023-01-18T11:31:45.638Z,79.50
2023-01-18T11:34:46.489Z,80.60
2023-01-18T11:37:36.093Z,80.50
2023-01-18T11:40:32.325Z,79.50
2023-01-18T11:43:27.736Z,79.70
2023-01-18T11:46:13.061Z,78.90
2023-01-18T11:49:02.907Z,77.80
2023-01-18T11:51:45.908Z,78.30
2023-01-18T11:54:47.364Z,77.80
2023-01-18T11:57:15.122Z,79.40
2023-01-18T11:59:47.921Z,80.50
2023-01-18T12:03:02.144Z,79.80
2023-01-18T12:05:58.919Z,80.40
2023-01-18T12:09:45.021Z,79.70
2023-01-18T12:13:20.359Z,79.60
2023-01-18T12:16:51.949Z,80.50
2023-01-18T12:19:54.853Z,80.80
2023-01-18T12:23:40.268Z,80.00
2023-01-18T12:27:06.408Z,79.40
2023-01-18T12:30:08.015Z,80.40
2023-01-18T12:33:42.285Z,81.30
2023-01-18T12:36:55.878Z,81.30
2023-01-18T12:39:40.658Z,81.70
2023-01-18T12:42:47.398Z,80.40
2023-01-18T12:45:40.408Z,80.70
2023-01-18T12:48:52.549Z,80.20
2023-01-18T12:51:28.613Z,78.00
2023-01-18T12:55:01.481Z,78.70
2023-01-18T12:57:42.209Z,79.70
2023-01-18T13:00:36.981Z,79.60
2023-01-18T13:03:35.236Z,79.40
2023-01-18T13:06:05.080Z,80.20
2023-01-18T13:09:01.259Z,80.00
2023-01-18T13:11:46.574Z,80.50
2023-01-18T13:15:01.832Z,80.30
2023-01-18T13:17:59.824Z,79.90
2023-01-18T13:21:02.780Z,80.30
2023-01-18T13:24:31.689Z,80.70
2023-01-18T13:27:20.165Z,80.90
2023-01-18T13:30:09.275Z,80.80
2023-01-18T13:32:39.038Z,79.40
2023-01-18T13:38:40.485Z,79.60
2023-01-18T13:41:46.158Z,78.30
2023-01-18T13:44:45.159Z,79.70
2023-01-18T13:47:42.867Z,79.40
2023-01-18T13:51:10.686Z,78.10
2023-01-18T13:54:01.302Z,79.60
2023-01-18T13:56:58.915Z,80.70
2023-01-18T14:00:26.331Z,80.50
2023-01-18T14:04:01.678Z,81.50
2023-01-18T14:06:44.348Z,82.30
2023-01-18T14:09:34.439Z,81.60
2023-01-18T14:12:01.788Z,81.30
2023-01-18T14:14:56.229Z,79.30
2023-01-18T14:17:25.608Z,79.40
2023-01-18T14:20:51.797Z,81.30
2023-01-18T14:23:45.553Z,80.70
2023-01-18T14:26:22.531Z,78.20
2023-01-18T14:29:09.255Z,77.00
2023-01-18T14:31:49.652Z,77.40
2023-01-18T14:34:40.543Z,78.40
2023-01-18T14:37:32.445Z,80.20
2023-01-18T14:40:28.484Z,79.70
2023-01-18T14:46:17.683Z,77.20
2023-01-18T14:48:54.467Z,78.60
2023-01-18T14:51:28.503Z,79.40
2023-01-18T14:54:05.192Z,77.60
2023-01-18T14:56:42.861Z,76.90
2023-01-18T14:59:27.830Z,76.50
2023-01-18T15:01:59.332Z,76.10
2023-01-18T15:04:47.453Z,76.50
2023-01-18T15:07:40.778Z,76.50
2023-01-18T15:10:30.127Z,76.30
2023-01-18T15:13:04.377Z,76.50
2023-01-18T15:15:44.212Z,76.30
2023-01-18T15:18:26.642Z,75.80
2023-01-18T15:21:21.786Z,75.60
2023-01-18T15:23:54.844Z,74.90
2023-01-18T15:26:58.056Z,76.10
2023-01-18T15:29:39.468Z,75.80
2023-01-18T15:32:23.173Z,73.30
2023-01-18T15:34:54.892Z,74.60
2023-01-18T15:38:09.033Z,76.30
2023-01-18T15:40:43.993Z,77.50
2023-01-18T15:43:43.912Z,76.90
2023-01-18T15:46:18.360Z,75.80
2023-01-18T15:48:58.585Z,76.30
2023-01-18T15:51:48.821Z,76.20
2023-01-18T15:54:49.401Z,76.00
2023-01-18T16:01:08.519Z,76.50
2023-01-18T16:04:19.419Z,76.50
2023-01-18T16:06:46.850Z,78.50
2023-01-18T16:09:16.050Z,76.60
2023-01-18T16:11:56.882Z,78.50
2023-01-18T16:14:33.671Z,77.20
2023-01-18T16:17:06.800Z,78.30
2023-01-18T16:19:42.039Z,79.90
2023-01-18T16:22:37.831Z,80.40
2023-01-18T16:25:23.885Z,81.40
2023-01-18T16:28:00.274Z,83.20
2023-01-18T16:30:51.503Z,84.00
2023-01-18T16:33:24.808Z,84.40
2023-01-18T16:35:52.076Z,84.40
2023-01-18T16:38:20.556Z,85.00
2023-01-18T16:40:51.357Z,85.30
2023-01-18T16:43:24.500Z,85.30
2023-01-18T16:45:58.950Z,87.00
2023-01-18T16:48:29.407Z,87.00
2023-01-18T16:50:59.503Z,87.90
2023-01-18T16:53:27.242Z,88.30
2023-01-18T16:55:56.068Z,88.20
2023-01-18T16:58:24.227Z,88.80
2023-01-18T17:03:52.089Z,88.90
2023-01-18T17:06:22.693Z,89.10
2023-01-18T17:11:32.020Z,89.70
2023-01-18T17:13:58.985Z,88.70
2023-01-18T17:16:25.934Z,89.10
2023-01-18T17:18:53.145Z,89.90
2023-01-18T17:21:20.281Z,90.40
2023-01-18T17:23:47.303Z,89.20
2023-01-18T17:26:15.688Z,89.20
2023-01-18T17:28:44.786Z,90.00
2023-01-18T17:31:12.023Z,89.10
2023-01-18T17:33:42.973Z,89.30
2023-01-18T17:36:10.180Z,89.80
2023-01-18T17:38:37.413Z,89.40
2023-01-18T17:41:05.356Z,87.40
2023-01-18T17:43:38.100Z,87.20
2023-01-18T17:46:06.967Z,86.70
2023-01-18T17:48:34.791Z,88.20
2023-01-18T17:51:16.503Z,89.00
2023-01-18T17:53:44.074Z,88.10
2023-01-18T17:56:19.329Z,89.10
2023-01-18T17:58:56.655Z,89.30
2023-01-18T18:01:24.465Z,89.40
2023-01-18T18:03:52.652Z,90.40
2023-01-18T18:06:38.230Z,89.90
2023-01-18T18:09:07.254Z,90.70
2023-01-18T18:11:34.510Z,89.80
2023-01-18T18:14:03.090Z,90.70
2023-01-18T18:16:30.658Z,90.30
2023-01-18T18:19:00.027Z,91.00
2023-01-18T18:21:34.423Z,90.10
2023-01-18T18:24:05.804Z,89.30
2023-01-18T18:26:33.042Z,90.50
2023-01-18T18:29:00.830Z,90.10
2023-01-18T18:31:27.818Z,90.40
2023-01-18T18:33:55.228Z,90.90
2023-01-18T18:36:22.197Z,90.60
2023-01-18T18:38:49.285Z,91.40
2023-01-18T18:41:16.836Z,91.10
2023-01-18T18:43:43.990Z,90.60
2023-01-18T18:46:11.206Z,90.60
2023-01-18T18:48:41.140Z,90.60
2023-01-18T18:51:08.795Z,90.90
2023-01-18T18:53:40.583Z,90.70
2023-01-18T18:56:10.924Z,90.40
2023-01-18T18:58:45.701Z,90.50
2023-01-18T19:01:36.739Z,91.60
2023-01-18T19:04:05.384Z,91.30
2023-01-18T19:06:35.989Z,91.70
2023-01-18T19:09:06.515Z,92.70
2023-01-18T19:11:34.752Z,93.60
2023-01-18T19:15:04.287Z,94.80
2023-01-18T19:18:24.633Z,94.80
2023-01-18T19:21:22.014Z,95.30
2023-01-18T19:24:27.064Z,94.70
2023-01-18T19:29:46.219Z,94.70
2023-01-18T19:32:14.994Z,95.00
2023-01-18T19:35:03.997Z,96.30
2023-01-18T19:37:36.497Z,96.80
2023-01-18T19:40:09.508Z,95.40
2023-01-18T19:43:00.539Z,95.30
2023-01-18T19:45:38.718Z,96.40
2023-01-18T19:48:10.369Z,96.20
2023-01-18T19:50:39.081Z,96.70
2023-01-18T19:53:08.553Z,96.10
2023-01-18T19:55:38.713Z,95.00
2023-01-18T19:58:06.541Z,94.40
2023-01-18T20:00:37.001Z,94.90
2023-01-18T20:03:07.122Z,94.20
2023-01-18T20:05:34.399Z,94.30
2023-01-18T20:08:15.633Z,94.00
2023-01-18T20:10:45.335Z,94.50
2023-01-18T20:13:13.986Z,95.40
2023-01-18T20:15:42.636Z,96.00
2023-01-18T20:18:09.889Z,96.10
2023-01-18T20:21:03.263Z,96.70
2023-01-18T20:23:35.029Z,97.30
2023-01-18T20:26:02.908Z,94.90
2023-01-18T20:28:30.327Z,94.00
2023-01-18T20:30:57.924Z,93.50
2023-01-18T20:33:25.142Z,93.70
2023-01-18T20:35:55.501Z,95.30
2023-01-18T20:38:22.428Z,97.20
2023-01-18T20:40:54.747Z,97.20
2023-01-18T20:43:21.868Z,96.00
2023-01-18T20:45:49.348Z,96.30
2023-01-18T20:48:21.014Z,95.90
2023-01-18T20:50:48.128Z,95.80
2023-01-18T20:53:18.408Z,94.50
2023-01-18T20:55:45.719Z,96.00
2023-01-18T20:58:12.628Z,94.90
2023-01-18T21:00:40.070Z,94.20
2023-01-18T21:03:13.696Z,94.40
2023-01-18T21:05:45.303Z,95.60
2023-01-18T21:08:13.104Z,95.30
2023-01-18T21:10:42.108Z,94.00
2023-01-18T21:13:11.709Z,93.90
2023-01-18T21:15:41.854Z,93.30
2023-01-18T21:18:09.218Z,92.00
2023-01-18T21:20:36.547Z,91.80
2023-01-18T21:23:03.684Z,91.40
2023-01-18T21:25:30.764Z,90.20
2023-01-18T21:27:58.242Z,87.90
2023-01-18T21:30:25.513Z,88.40
2023-01-18T21:32:52.658Z,91.50
2023-01-18T21:35:19.702Z,92.90
2023-01-18T21:37:46.761Z,93.70
2023-01-18T21:40:16.710Z,92.60
2023-01-18T21:43:09.999Z,92.10
2023-01-18T21:45:55.000Z,94.20
2023-01-18T21:48:24.848Z,97.00
2023-01-18T21:51:24.880Z,96.90
2023-01-18T21:54:30.175Z,97.70
2023-01-18T21:56:59.162Z,98.60
2023-01-18T21:59:26.233Z,99.90
2023-01-18T22:01:53.603Z,99.90
2023-01-18T22:04:39.612Z,99.90
2023-01-18T22:07:06.534Z,99.90
2023-01-18T22:09:33.623Z,99.90
2023-01-18T22:12:01.321Z,99.90
2023-01-18T22:14:28.878Z,99.90
2023-01-18T22:16:56.067Z,99.90
2023-01-18T22:19:23.128Z,99.90
2023-01-18T22:21:50.817Z,99.90
2023-01-18T22:24:18.476Z,99.90
2023-01-18T22:26:46.055Z,99.90
2023-01-18T22:29:13.840Z,99.90
2023-01-18T22:31:41.341Z,99.90
2023-01-18T22:34:14.537Z,99.90
2023-01-18T22:36:41.498Z,99.90
2023-01-18T22:39:08.435Z,99.90
2023-01-18T22:41:35.480Z,99.90
2023-01-18T22:44:02.435Z,99.90
2023-01-18T22:46:29.553Z,99.90
2023-01-18T22:48:58.480Z,99.90
2023-01-18T22:51:26.001Z,99.90
2023-01-18T22:53:53.201Z,99.90
2023-01-18T22:56:24.990Z,99.90
2023-01-18T22:58:52.895Z,99.90
2023-01-18T23:01:29.337Z,99.90
2023-01-18T23:04:01.390Z,99.90
2023-01-18T23:06:41.880Z,99.90
2023-01-18T23:09:10.451Z,99.90
2023-01-18T23:11:38.494Z,99.90
2023-01-18T23:14:24.799Z,99.90
2023-01-18T23:17:10.753Z,99.90
2023-01-18T23:19:37.650Z,99.90
2023-01-18T23:22:07.144Z,99.90
2023-01-18T23:24:37.234Z,99.90
2023-01-18T23:27:08.019Z,99.90
2023-01-18T23:29:35.386Z,99.90
2023-01-18T23:32:02.704Z,99.90
2023-01-18T23:34:29.777Z,99.90
2023-01-18T23:36:56.746Z,99.90
2023-01-18T23:39:42.558Z,99.50
2023-01-18T23:42:28.025Z,99.00
2023-01-18T23:45:13.454Z,99.30
2023-01-18T23:47:59.409Z,98.40
2023-01-18T23:50:46.503Z,98.30
2023-01-18T23:53:32.386Z,97.30
2023-01-18T23:56:00.006Z,96.30
2023-01-18T23:58:28.095Z,96.40
